This is the latest recevied weather packets stored in our database for station/object DH5DY-6. If no packets are shown the sender has not sent any weather packets the latest 10 day(s).
| Time | Temp. | Humidity | Pressure | Rain* | Wind** | Luminosity | Snow |
|---|---|---|---|---|---|---|---|
| 1787839941 | 29.44° C | 52% | 1009.3 hPa | 0 mm | - | 359 W/m² | - |
| 1787838740 | 29.44° C | 51% | 1009.4 hPa | 0 mm | - | 264 W/m² | - |
| 1787838140 | 29.44° C | 51% | 1009.2 hPa | 0 mm | - | 327 W/m² | - |
| 1787836940 | 28.89° C | 52% | 1009.3 hPa | 0 mm | - | 436 W/m² | - |
| 1787836342 | 28.89° C | 53% | 1009.1 hPa | 0 mm | - | 401 W/m² | - |
| 1787835142 | 28.89° C | 54% | 1009.4 hPa | 0 mm | - | 587 W/m² | - |
| 1787834540 | 28.33° C | 55% | 1009.5 hPa | 0 mm | - | 517 W/m² | - |
| 1787834320 | 26.11° C | 61% | 1010.3 hPa | 0 mm | - | 684 W/m² | - |
| 1787834320 | 26.67° C | 59% | 1010.2 hPa | 0 mm | - | 540 W/m² | - |
| 1787832740 | 27.78° C | 58% | 1009.6 hPa | 0 mm | - | 601 W/m² | - |
| 1787830942 | 27.22° C | 57% | 1009.7 hPa | 0 mm | - | 673 W/m² | - |
| 1787829740 | 26.67° C | 61% | 1009.8 hPa | 0 mm | - | 691 W/m² | - |
| 1787829140 | 26.11° C | 61% | 1010 hPa | 0 mm | - | 468 W/m² | - |
| 1787827340 | 26.67° C | 59% | 1010.2 hPa | 0 mm | - | 540 W/m² | - |
| 1787826140 | 26.11° C | 61% | 1010.3 hPa | 0 mm | - | 684 W/m² | - |
| 1787825543 | 25.56° C | 63% | 1010.2 hPa | 0 mm | - | 522 W/m² | - |
| 1787824340 | 24.44° C | 68% | 1010.2 hPa | 0 mm | - | 605 W/m² | - |
| 1787823740 | 24.44° C | 68% | 1010.4 hPa | 0 mm | - | 585 W/m² | - |
| 1787822540 | 23.33° C | 72% | 1010.5 hPa | 0 mm | - | 69 W/m² | - |
| 1787821939 | 23.33° C | 71% | 1010.4 hPa | 0 mm | - | 83 W/m² | - |
| 1787820739 | 22.22° C | 74% | 1010.8 hPa | 0 mm | - | 151 W/m² | - |
| 1787820139 | 21.67° C | 78% | 1011.1 hPa | 0 mm | - | 190 W/m² | - |
| 1787818942 | 21.11° C | 78% | 1011.4 hPa | 0 mm | - | 172 W/m² | - |
| 1787818339 | 20.56° C | 79% | 1011.6 hPa | 0 mm | - | 70 W/m² | - |
| 1787817140 | 20° C | 82% | 1011.6 hPa | 0 mm | - | 207 W/m² | - |
* Rain latest hour (hover to see other rain measurements)
** Current wind speed in m/s (hover to see current wind gust speed)